Time;durP1;ratioP1;P1;durP2;ratioP2;P2;SDS_P1;SDS_P2;PMS_P1;PMS_P2;Temp;Humidity;BMP_temperature;BMP_pressure;BME280_temperature;BME280_humidity;BME280_pressure;Samples;Min_cycle;Max_cycle;Signal;HPM_P1;HPM_P2
2022/12/31 00:02:06;;;;;;;;;;;;;;;10.71;100.00;100210.59;5051607;28;20372;-83
2022/12/31 00:04:31;;;;;;;;;;;;;;;10.77;100.00;100222.31;5036632;28;19924;-82
2022/12/31 00:06:57;;;;;;;;;;;;;;;10.81;100.00;100234.19;5054081;28;20404;-83
2022/12/31 00:09:22;;;;;;;;;;;;;;;10.82;100.00;100230.56;5035992;28;19928;-82
2022/12/31 00:11:47;;;;;;;;;;;;;;;10.81;100.00;100231.56;5051338;28;19920;-84
2022/12/31 00:14:12;;;;;;;;;;;;;;;10.80;100.00;100229.91;5034951;28;19928;-82
2022/12/31 00:16:39;;;;;;;;;;;;;;;10.83;100.00;100225.13;5052682;28;20646;-82
2022/12/31 00:19:05;;;;;;;;;;;;;;;10.77;100.00;100243.44;5052626;28;19928;-82
2022/12/31 00:21:31;;;;;;;;;;;;;;;10.74;100.00;100241.13;5053184;28;19984;-82
2022/12/31 00:23:59;;;;;;;;;;;;;;;10.75;100.00;100248.88;5052196;28;20221;-80
2022/12/31 00:26:26;;;;;;;;;;;;;;;10.80;100.00;100258.94;5052116;28;19989;-82
2022/12/31 00:28:52;;;;;;;;;;;;;;;10.74;100.00;100255.16;5058997;28;19920;-83
2022/12/31 00:31:19;;;;;;;;;;;;;;;10.79;100.00;100259.94;5053213;28;19921;-82
2022/12/31 00:33:44;;;;;;;;;;;;;;;10.81;100.00;100252.69;5052161;28;20774;-82
2022/12/31 00:36:13;;;;;;;;;;;;;;;10.80;100.00;100253.66;5053650;28;19951;-82
2022/12/31 00:38:40;;;;;;;;;;;;;;;10.83;100.00;100256.78;5053355;28;19928;-82
2022/12/31 00:41:05;;;;;;;;;;;;;;;10.83;100.00;100261.25;5053774;28;20523;-82
2022/12/31 00:43:31;;;;;;;;;;;;;;;10.80;100.00;100256.28;5052412;28;20093;-82
2022/12/31 00:45:57;;;;;;;;;;;;;;;10.79;100.00;100262.56;5051871;28;19935;-82
2022/12/31 00:48:22;;;;;;;;;;;;;;;10.79;100.00;100267.84;5052345;28;19924;-82
2022/12/31 00:50:47;;;;;;;;;;;;;;;10.80;100.00;100274.78;5052924;28;20285;-81
2022/12/31 00:53:12;;;;;;;;;;;;;;;10.77;100.00;100267.19;5050811;28;19974;-83
2022/12/31 00:55:38;;;;;;;;;;;;;;;10.82;100.00;100280.72;5052685;28;19931;-82
2022/12/31 00:58:03;;;;;;;;;;;;;;;10.83;100.00;100271.81;5035116;28;19925;-82
2022/12/31 01:00:28;;;;;;;;;;;;;;;10.84;100.00;100278.72;5051387;28;19935;-82
2022/12/31 01:02:54;;;;;;;;;;;;;;;10.82;100.00;100275.44;5050570;28;20023;-82
2022/12/31 01:05:19;;;;;;;;;;;;;;;10.84;100.00;100281.38;5036217;28;19943;-80
2022/12/31 01:07:44;;;;;;;;;;;;;;;10.81;100.00;100279.06;5057845;28;20019;-82
2022/12/31 01:10:09;;;;;;;;;;;;;;;10.80;100.00;100280.03;5050783;28;19959;-83
2022/12/31 01:12:35;;;;;;;;;;;;;;;10.84;100.00;100281.38;5051053;28;19939;-82
2022/12/31 01:15:00;;;;;;;;;;;;;;;10.81;100.00;100294.91;5051426;28;19936;-81
2022/12/31 01:17:25;;;;;;;;;;;;;;;10.80;100.00;100293.25;5034489;28;19932;-81
2022/12/31 01:19:51;;;;;;;;;;;;;;;10.83;100.00;100293.75;5035165;28;20309;-82
2022/12/31 01:22:16;;;;;;;;;;;;;;;10.84;100.00;100289.28;5057850;28;19944;-80
2022/12/31 01:24:41;;;;;;;;;;;;;;;10.84;100.00;100290.13;5067712;28;19928;-83
2022/12/31 01:27:06;;;;;;;;;;;;;;;10.83;100.00;100303.50;5058623;28;19964;-82
2022/12/31 01:29:32;;;;;;;;;;;;;;;10.77;100.00;100298.88;5051674;28;19925;-82
2022/12/31 01:31:57;;;;;;;;;;;;;;;10.76;100.00;100305.16;5051750;28;20391;-80
2022/12/31 01:34:22;;;;;;;;;;;;;;;10.73;100.00;100301.00;5050828;28;20281;-81
2022/12/31 01:36:48;;;;;;;;;;;;;;;10.76;100.00;100310.44;5058502;28;20019;-82
2022/12/31 01:39:13;;;;;;;;;;;;;;;10.75;100.00;100314.03;5052419;28;19960;-82
2022/12/31 01:41:40;;;;;;;;;;;;;;;10.78;100.00;100314.56;5051903;28;20663;-83
2022/12/31 01:44:11;;;;;;;;;;;;;;;10.74;100.00;100312.41;5057566;28;19927;-80
2022/12/31 01:46:40;;;;;;;;;;;;;;;10.69;100.00;100321.63;5050270;28;19920;-82
2022/12/31 01:49:10;;;;;;;;;;;;;;;10.67;100.00;100326.25;5052225;28;19917;-80
2022/12/31 01:51:36;;;;;;;;;;;;;;;10.66;100.00;100324.59;5052657;28;20340;-82
2022/12/31 01:54:03;;;;;;;;;;;;;;;10.63;100.00;100327.56;5052335;28;19921;-82
2022/12/31 01:56:28;;;;;;;;;;;;;;;10.61;100.00;100323.44;5051133;28;19924;-81
2022/12/31 01:58:55;;;;;;;;;;;;;;;10.66;100.00;100323.75;5051793;28;19936;-82
2022/12/31 02:01:24;;;;;;;;;;;;;;;10.61;100.00;100320.81;5049660;28;19920;-81
2022/12/31 02:03:50;;;;;;;;;;;;;;;10.62;100.00;100333.81;5051327;28;20381;-83
2022/12/31 02:06:34;;;;;;;;;;;;;;;10.64;100.00;100339.75;5055607;28;19925;-82
2022/12/31 02:08:59;;;;;;;;;;;;;;;10.64;100.00;100333.66;5053556;28;19920;-80
2022/12/31 02:11:29;;;;;;;;;;;;;;;10.63;100.00;100332.84;5054858;28;20349;-83
2022/12/31 02:13:56;;;;;;;;;;;;;;;10.65;100.00;100344.06;5054885;28;20550;-82
2022/12/31 02:16:39;;;;;;;;;;;;;;;10.67;100.00;100336.00;5053072;28;20007;-83
2022/12/31 02:19:10;;;;;;;;;;;;;;;10.70;100.00;100335.66;5062260;28;20360;-80
2022/12/31 02:21:38;;;;;;;;;;;;;;;10.68;100.00;100333.16;5056628;28;19925;-81
2022/12/31 02:24:12;;;;;;;;;;;;;;;10.69;100.00;100329.56;5053231;28;19931;-82
2022/12/31 02:26:58;;;;;;;;;;;;;;;10.70;100.00;100330.38;5055590;28;19920;-82
2022/12/31 02:29:23;;;;;;;;;;;;;;;10.72;100.00;100325.75;5054233;28;19925;-82
2022/12/31 02:31:50;;;;;;;;;;;;;;;10.72;100.00;100317.84;5055103;28;19924;-82
2022/12/31 02:34:25;;;;;;;;;;;;;;;10.70;100.00;100312.72;5053933;28;20401;-81
2022/12/31 02:36:52;;;;;;;;;;;;;;;10.74;100.00;100320.31;5054160;28;19920;-81
2022/12/31 02:39:17;;;;;;;;;;;;;;;10.73;100.00;100329.22;5055087;28;20375;-82
2022/12/31 02:41:49;;;;;;;;;;;;;;;10.73;100.00;100323.94;5053516;28;20046;-82
2022/12/31 02:44:22;;;;;;;;;;;;;;;10.70;100.00;100315.34;5053569;28;19942;-83
2022/12/31 02:47:07;;;;;;;;;;;;;;;10.72;100.00;100317.03;5053780;28;19925;-82
2022/12/31 02:49:39;;;;;;;;;;;;;;;10.73;100.00;100313.38;4981783;28;20287;-80
2022/12/31 02:52:09;;;;;;;;;;;;;;;10.73;100.00;100302.81;4981859;28;19937;-83
2022/12/31 02:54:57;;;;;;;;;;;;;;;10.70;100.00;100310.06;4981956;28;20424;-82
2022/12/31 02:57:23;;;;;;;;;;;;;;;10.74;100.00;100330.88;4970083;28;20000;-82
2022/12/31 03:02:44;;;;;;;;;;;;;;;10.78;100.00;100322.47;4981367;28;20053;-82
2022/12/31 03:05:10;;;;;;;;;;;;;;;10.78;100.00;100318.97;4981732;28;19977;-82
2022/12/31 03:07:35;;;;;;;;;;;;;;;10.83;100.00;100321.97;4982427;28;20437;-82
2022/12/31 03:10:01;;;;;;;;;;;;;;;10.82;100.00;100322.94;4982278;28;20009;-82
2022/12/31 03:12:46;;;;;;;;;;;;;;;10.80;100.00;100317.84;4965496;28;19962;-80
2022/12/31 03:15:31;;;;;;;;;;;;;;;10.82;100.00;100313.22;4978554;28;20354;-82
2022/12/31 03:18:05;;;;;;;;;;;;;;;10.82;100.00;100301.81;4963068;28;19922;-82
2022/12/31 03:23:18;;;;;;;;;;;;;;;10.78;100.00;100308.41;4982599;28;19929;-82
2022/12/31 03:25:43;;;;;;;;;;;;;;;10.78;100.00;100306.63;4987975;28;19930;-81
2022/12/31 03:28:10;;;;;;;;;;;;;;;10.77;100.00;100312.06;5053484;28;20712;-80
2022/12/31 03:30:39;;;;;;;;;;;;;;;10.75;100.00;100312.22;5053525;28;19921;-82
2022/12/31 03:33:06;;;;;;;;;;;;;;;10.74;100.00;100299.22;5054304;28;20023;-82
2022/12/31 03:35:32;;;;;;;;;;;;;;;10.71;100.00;100302.97;5053123;28;19926;-83
2022/12/31 03:37:57;;;;;;;;;;;;;;;10.75;100.00;100300.84;5036926;28;20006;-81
2022/12/31 03:40:24;;;;;;;;;;;;;;;10.74;100.00;100300.03;5054199;28;19925;-80
2022/12/31 03:42:49;;;;;;;;;;;;;;;10.75;100.00;100295.56;5053026;28;20476;-82
2022/12/31 03:45:14;;;;;;;;;;;;;;;10.75;100.00;100285.00;5035932;28;20058;-83
2022/12/31 03:47:39;;;;;;;;;;;;;;;10.66;100.00;100287.63;5054152;28;19917;-80
2022/12/31 03:50:06;;;;;;;;;;;;;;;10.64;100.00;100286.97;5053237;28;19920;-80
2022/12/31 03:52:31;;;;;;;;;;;;;;;10.62;100.00;100293.41;5054641;28;20408;-82
2022/12/31 03:54:56;;;;;;;;;;;;;;;10.66;100.00;100295.56;5053307;28;19920;-83
2022/12/31 03:57:22;;;;;;;;;;;;;;;10.60;100.00;100290.94;5036475;28;20295;-82
2022/12/31 03:59:48;;;;;;;;;;;;;;;10.57;100.00;100293.09;5053235;28;19920;-81
2022/12/31 04:02:13;;;;;;;;;;;;;;;10.53;100.00;100291.75;5053835;28;20376;-82
2022/12/31 04:04:38;;;;;;;;;;;;;;;10.48;100.00;100282.50;5053786;28;20048;-81
2022/12/31 04:07:03;;;;;;;;;;;;;;;10.43;100.00;100291.88;5052469;28;20018;-82
2022/12/31 04:09:29;;;;;;;;;;;;;;;10.43;100.00;100295.38;5060406;28;19935;-82
2022/12/31 04:11:54;;;;;;;;;;;;;;;10.38;100.00;100292.38;5052166;28;19967;-82
2022/12/31 04:14:19;;;;;;;;;;;;;;;10.36;100.00;100296.19;5054220;28;19963;-81
2022/12/31 04:16:44;;;;;;;;;;;;;;;10.37;100.00;100308.41;5034902;28;19956;-82
2022/12/31 04:19:10;;;;;;;;;;;;;;;10.32;100.00;100303.56;5052143;28;20325;-82
2022/12/31 04:21:36;;;;;;;;;;;;;;;10.32;100.00;100323.84;5053770;28;20023;-82
2022/12/31 04:24:02;;;;;;;;;;;;;;;10.31;100.00;100322.22;5053688;28;19924;-82
2022/12/31 04:26:27;;;;;;;;;;;;;;;10.31;100.00;100330.13;5051981;28;19926;-82
2022/12/31 04:28:52;;;;;;;;;;;;;;;10.31;100.00;100323.03;5051861;28;19970;-82
2022/12/31 04:31:18;;;;;;;;;;;;;;;10.33;100.00;100317.63;5052761;28;20024;-83
2022/12/31 04:33:43;;;;;;;;;;;;;;;10.28;100.00;100310.97;5053156;28;19956;-82
2022/12/31 04:36:08;;;;;;;;;;;;;;;10.28;100.00;100321.53;5052626;28;19916;-82
2022/12/31 04:38:34;;;;;;;;;;;;;;;10.23;100.00;100317.72;5052654;28;19920;-82
2022/12/31 04:41:20;;;;;;;;;;;;;;;10.22;100.00;100301.06;5034617;28;20363;-82
2022/12/31 04:43:49;;;;;;;;;;;;;;;10.16;100.00;100301.69;5051668;28;19921;-82
2022/12/31 04:46:15;;;;;;;;;;;;;;;10.13;100.00;100307.31;5052094;28;19921;-82
2022/12/31 04:48:40;;;;;;;;;;;;;;;10.09;100.00;100303.34;5052256;28;19951;-81
2022/12/31 04:51:05;;;;;;;;;;;;;;;10.11;100.00;100298.72;5052941;28;20414;-82
2022/12/31 04:53:31;;;;;;;;;;;;;;;10.12;100.00;100295.09;5051569;28;20029;-82
2022/12/31 04:55:56;;;;;;;;;;;;;;;10.09;100.00;100301.53;5051501;28;20679;-82
2022/12/31 04:58:22;;;;;;;;;;;;;;;10.06;100.00;100301.00;5035346;28;20022;-82
2022/12/31 05:00:50;;;;;;;;;;;;;;;10.04;100.00;100303.81;5051158;28;20006;-83
2022/12/31 05:03:16;;;;;;;;;;;;;;;10.03;100.00;100317.97;5052665;28;20391;-81
2022/12/31 05:05:42;;;;;;;;;;;;;;;10.02;100.00;100326.88;5057064;28;19974;-81
2022/12/31 05:08:11;;;;;;;;;;;;;;;9.99;100.00;100329.81;5034296;28;19921;-82
2022/12/31 05:10:40;;;;;;;;;;;;;;;9.97;100.00;100336.22;5051675;28;20027;-83
2022/12/31 05:13:05;;;;;;;;;;;;;;;9.98;100.00;100361.63;5052060;28;19947;-79
2022/12/31 05:15:30;;;;;;;;;;;;;;;10.01;100.00;100371.84;5050443;28;19929;-82
2022/12/31 05:17:55;;;;;;;;;;;;;;;9.98;100.00;100373.00;5051802;28;19924;-82
2022/12/31 05:20:21;;;;;;;;;;;;;;;10.00;100.00;100378.13;5035890;28;20011;-82
2022/12/31 05:22:46;;;;;;;;;;;;;;;9.98;100.00;100382.72;5052789;28;20401;-82
2022/12/31 05:25:11;;;;;;;;;;;;;;;9.96;100.00;100376.78;5051719;28;19924;-82
2022/12/31 05:27:36;;;;;;;;;;;;;;;9.93;100.00;100390.25;5051637;28;19925;-82
2022/12/31 05:30:03;;;;;;;;;;;;;;;9.93;100.00;100377.06;5035177;28;19925;-82
2022/12/31 05:32:28;;;;;;;;;;;;;;;9.94;100.00;100376.94;5073053;28;19913;-79
2022/12/31 05:34:53;;;;;;;;;;;;;;;9.94;100.00;100378.75;5062052;28;20355;-82
2022/12/31 05:37:19;;;;;;;;;;;;;;;9.92;100.00;100394.72;5052699;28;19921;-82
2022/12/31 05:39:44;;;;;;;;;;;;;;;9.93;100.00;100393.75;5054713;28;19924;-81
2022/12/31 05:42:10;;;;;;;;;;;;;;;9.96;100.00;100397.88;5061386;28;19924;-82
2022/12/31 05:44:35;;;;;;;;;;;;;;;9.94;100.00;100390.09;5053450;28;20019;-83
2022/12/31 05:47:00;;;;;;;;;;;;;;;9.88;100.00;100394.19;5038624;28;19971;-82
2022/12/31 05:49:25;;;;;;;;;;;;;;;9.88;100.00;100399.44;5056845;28;19931;-80
2022/12/31 05:51:51;;;;;;;;;;;;;;;9.86;100.00;100405.88;5055283;28;19932;-82
2022/12/31 05:54:16;;;;;;;;;;;;;;;9.86;100.00;100405.88;5054331;28;19936;-82
2022/12/31 05:56:41;;;;;;;;;;;;;;;9.86;100.00;100406.72;5055036;28;20023;-82
2022/12/31 05:59:06;;;;;;;;;;;;;;;9.85;100.00;100422.69;5056327;28;19925;-82
2022/12/31 06:01:32;;;;;;;;;;;;;;;9.86;100.00;100433.06;5054694;28;19920;-82
2022/12/31 06:03:57;;;;;;;;;;;;;;;9.91;100.00;100445.78;5062825;28;19921;-82
2022/12/31 06:06:24;;;;;;;;;;;;;;;9.94;100.00;100440.19;5038434;28;20637;-81
2022/12/31 06:08:49;;;;;;;;;;;;;;;9.96;100.00;100432.97;5055203;28;19927;-82
2022/12/31 06:11:14;;;;;;;;;;;;;;;9.95;100.00;100446.28;5057942;28;20573;-82
2022/12/31 06:13:40;;;;;;;;;;;;;;;9.89;100.00;100451.22;5057132;28;19921;-82
2022/12/31 06:16:06;;;;;;;;;;;;;;;9.85;100.00;100460.41;5038677;28;19927;-82
2022/12/31 06:18:31;;;;;;;;;;;;;;;9.81;100.00;100482.78;5055213;28;19924;-82
2022/12/31 06:20:57;;;;;;;;;;;;;;;9.79;100.00;100491.81;5048550;28;19986;-82
2022/12/31 06:23:22;;;;;;;;;;;;;;;9.78;100.00;100509.44;5059043;28;19925;-82
2022/12/31 06:25:47;;;;;;;;;;;;;;;9.75;100.00;100515.00;5040748;28;20388;-81
2022/12/31 06:28:12;;;;;;;;;;;;;;;9.78;100.00;100527.06;5042199;28;20241;-82
2022/12/31 06:30:37;;;;;;;;;;;;;;;9.77;100.00;100528.88;5055462;28;19943;-82
2022/12/31 06:33:03;;;;;;;;;;;;;;;9.72;100.00;100525.03;5040521;28;19928;-82
2022/12/31 06:35:28;;;;;;;;;;;;;;;9.71;100.00;100524.19;5055955;28;19943;-82
2022/12/31 06:37:53;;;;;;;;;;;;;;;9.67;100.00;100528.13;5057096;28;19971;-82
2022/12/31 06:40:19;;;;;;;;;;;;;;;9.62;100.00;100514.56;5038734;28;20462;-82
2022/12/31 06:42:44;;;;;;;;;;;;;;;9.67;100.00;100507.88;5056083;28;19932;-82
2022/12/31 06:45:09;;;;;;;;;;;;;;;9.66;100.00;100500.94;5055069;28;19924;-82
2022/12/31 06:47:34;;;;;;;;;;;;;;;9.69;100.00;100489.28;5037052;28;20004;-82
2022/12/31 06:50:00;;;;;;;;;;;;;;;9.68;100.00;100483.16;5056036;28;19920;-83
2022/12/31 06:52:25;;;;;;;;;;;;;;;9.72;100.00;100473.16;5036919;28;20380;-82
2022/12/31 06:54:50;;;;;;;;;;;;;;;9.72;100.00;100457.34;5055182;28;19924;-83
2022/12/31 06:57:16;;;;;;;;;;;;;;;9.71;100.00;100450.41;5054187;28;20011;-82
2022/12/31 06:59:42;;;;;;;;;;;;;;;9.67;100.00;100442.00;5055822;28;19931;-82
2022/12/31 07:02:26;;;;;;;;;;;;;;;9.66;100.00;100439.50;5053786;28;19939;-81
2022/12/31 07:04:54;;;;;;;;;;;;;;;9.66;100.00;100440.34;5053436;28;19928;-83
2022/12/31 07:07:31;;;;;;;;;;;;;;;9.57;100.00;100437.81;5054116;28;20367;-82
2022/12/31 07:10:06;;;;;;;;;;;;;;;9.68;100.00;100445.47;5055376;28;20015;-81
2022/12/31 07:12:50;;;;;;;;;;;;;;;9.66;100.00;100445.59;5054443;28;19974;-82
2022/12/31 07:15:19;;;;;;;;;;;;;;;9.58;100.00;100465.78;5052500;28;19931;-83
2022/12/31 07:18:17;;;;;;;;;;;;;;;9.57;100.00;100485.22;5054316;28;19923;-82
2022/12/31 07:20:43;;;;;;;;;;;;;;;9.51;100.00;100494.56;4965298;28;19953;-82
2022/12/31 07:23:08;;;;;;;;;;;;;;;9.52;100.00;100482.22;4965292;28;21633;-81
2022/12/31 07:25:34;;;;;;;;;;;;;;;9.45;100.00;100510.97;4965949;28;19961;-82
2022/12/31 07:28:02;;;;;;;;;;;;;;;9.36;100.00;100523.22;4981531;28;20506;-83
2022/12/31 07:30:34;;;;;;;;;;;;;;;9.37;100.00;100551.25;4963921;28;19921;-81
2022/12/31 07:33:07;;;;;;;;;;;;;;;9.33;100.00;100567.50;4965384;28;19922;-82
2022/12/31 07:35:41;;;;;;;;;;;;;;;9.32;100.00;100587.75;4965850;28;19922;-81
2022/12/31 07:38:16;;;;;;;;;;;;;;;9.28;100.00;100602.16;4981603;28;20052;-82
2022/12/31 07:40:47;;;;;;;;;;;;;;;9.27;100.00;100605.75;4978876;28;20316;-81
2022/12/31 07:43:16;;;;;;;;;;;;;;;9.30;100.00;100609.91;4964940;28;19963;-82
2022/12/31 07:46:02;;;;;;;;;;;;;;;9.26;100.00;100620.75;4963555;28;19921;-82
2022/12/31 07:48:28;;;;;;;;;;;;;;;9.27;100.00;100640.00;4980586;28;19940;-82
2022/12/31 07:50:54;;;;;;;;;;;;;;;9.24;100.00;100653.47;4964186;28;19930;-80
2022/12/31 07:53:20;;;;;;;;;;;;;;;9.31;100.00;100688.78;4980211;28;19921;-82
2022/12/31 07:55:46;;;;;;;;;;;;;;;9.33;100.00;100705.25;4998861;28;19928;-81
2022/12/31 07:58:20;;;;;;;;;;;;;;;9.34;100.00;100719.25;5054364;28;20720;-81
2022/12/31 08:00:45;;;;;;;;;;;;;;;9.39;100.00;100720.50;5052616;28;19920;-82
2022/12/31 08:03:14;;;;;;;;;;;;;;;9.39;100.00;100736.28;5052394;28;20478;-82
2022/12/31 08:05:42;;;;;;;;;;;;;;;9.40;100.00;100751.09;5053443;28;19947;-80
2022/12/31 08:08:25;;;;;;;;;;;;;;;9.44;100.00;100770.09;5052883;28;19927;-81
2022/12/31 08:11:02;;;;;;;;;;;;;;;9.42;100.00;100780.78;5052713;28;19917;-81
2022/12/31 08:13:27;;;;;;;;;;;;;;;9.43;100.00;100769.28;5051722;28;19928;-81
2022/12/31 08:15:53;;;;;;;;;;;;;;;9.40;100.00;100772.19;5051704;28;19925;-81
2022/12/31 08:18:18;;;;;;;;;;;;;;;9.41;100.00;100783.56;5051850;28;19921;-81
2022/12/31 08:21:07;;;;;;;;;;;;;;;9.42;100.00;100778.13;5052370;28;19924;-81
2022/12/31 08:23:35;;;;;;;;;;;;;;;9.41;100.00;100787.03;5044831;28;19955;-82
2022/12/31 08:26:03;;;;;;;;;;;;;;;9.42;100.00;100788.66;5052656;28;19916;-82
2022/12/31 08:28:47;;;;;;;;;;;;;;;9.45;100.00;100817.38;5059032;28;20027;-82
2022/12/31 08:31:21;;;;;;;;;;;;;;;9.53;100.00;100847.44;5051398;28;20230;-82
2022/12/31 08:33:46;;;;;;;;;;;;;;;9.50;100.00;100843.28;5050732;28;20001;-83
2022/12/31 08:36:16;;;;;;;;;;;;;;;9.52;100.00;100838.72;5059420;28;19925;-83
2022/12/31 08:39:00;;;;;;;;;;;;;;;9.53;100.00;100839.53;5051478;28;19916;-83
2022/12/31 08:41:32;;;;;;;;;;;;;;;9.48;100.00;100835.53;5054063;28;19936;-82
2022/12/31 08:44:02;;;;;;;;;;;;;;;9.48;100.00;100846.06;5059493;28;19992;-83
2022/12/31 08:46:30;;;;;;;;;;;;;;;9.51;100.00;100852.03;5051526;28;20494;-87
2022/12/31 08:48:55;;;;;;;;;;;;;;;9.58;100.00;100864.50;5050733;28;20107;-82
2022/12/31 08:51:22;;;;;;;;;;;;;;;9.59;100.00;100865.31;5035434;28;20019;-82
2022/12/31 08:53:48;;;;;;;;;;;;;;;9.61;100.00;100876.53;5040612;28;19959;-84
2022/12/31 08:56:28;;;;;;;;;;;;;;;9.59;100.00;100879.31;5052491;28;20504;-84
2022/12/31 08:59:12;;;;;;;;;;;;;;;9.59;100.00;100879.31;5050492;28;19927;-83
2022/12/31 09:01:55;;;;;;;;;;;;;;;9.67;100.00;100881.25;5050588;28;19951;-84
2022/12/31 09:04:24;;;;;;;;;;;;;;;9.74;100.00;100894.69;5050383;28;19960;-83
2022/12/31 09:07:10;;;;;;;;;;;;;;;9.73;100.00;100908.81;5058177;28;20020;-84
2022/12/31 09:09:56;;;;;;;;;;;;;;;9.78;100.00;100936.44;5050569;28;20007;-83
2022/12/31 09:12:25;;;;;;;;;;;;;;;9.83;100.00;100949.16;5050458;28;19920;-82
2022/12/31 09:14:59;;;;;;;;;;;;;;;9.93;100.00;100971.06;5051671;28;19921;-83
2022/12/31 09:17:41;;;;;;;;;;;;;;;9.99;100.00;100986.31;5055886;28;19995;-82
2022/12/31 09:20:13;;;;;;;;;;;;;;;10.07;100.00;100993.50;5054465;28;19921;-82
2022/12/31 09:22:38;;;;;;;;;;;;;;;10.17;100.00;101004.88;5054433;28;20063;-83
2022/12/31 09:25:03;;;;;;;;;;;;;;;10.26;100.00;101014.56;5056026;28;20035;-81
2022/12/31 09:27:47;;;;;;;;;;;;;;;10.34;100.00;101036.78;5053984;28;19913;-81
2022/12/31 09:30:15;;;;;;;;;;;;;;;10.47;100.00;101037.28;5061143;28;19970;-83
2022/12/31 09:32:55;;;;;;;;;;;;;;;10.60;100.00;101052.78;5055946;28;19921;-83
2022/12/31 09:35:28;;;;;;;;;;;;;;;10.77;100.00;101045.91;5056835;28;19920;-83
2022/12/31 09:37:55;;;;;;;;;;;;;;;10.80;100.00;101048.25;5055715;28;20015;-82
2022/12/31 09:40:20;;;;;;;;;;;;;;;10.98;100.00;101049.16;5055078;28;20016;-84
2022/12/31 09:42:51;;;;;;;;;;;;;;;11.09;100.00;101048.94;5055251;28;20868;-85
2022/12/31 09:45:26;;;;;;;;;;;;;;;11.18;100.00;101019.97;5061664;28;20789;-85
2022/12/31 09:48:10;;;;;;;;;;;;;;;11.22;100.00;100994.91;5061014;28;20035;-82
2022/12/31 09:50:51;;;;;;;;;;;;;;;11.28;100.00;100973.19;5055027;28;19927;-81
2022/12/31 09:53:32;;;;;;;;;;;;;;;11.37;100.00;100950.31;5056208;28;20510;-81
2022/12/31 09:56:03;;;;;;;;;;;;;;;11.41;100.00;100923.41;5053722;28;19958;-81
2022/12/31 09:58:36;;;;;;;;;;;;;;;11.44;100.00;100893.19;5053059;28;20782;-79
2022/12/31 10:01:02;;;;;;;;;;;;;;;11.47;100.00;100869.91;5054187;28;20010;-82
2022/12/31 10:03:47;;;;;;;;;;;;;;;11.56;100.00;100865.50;5055553;28;20008;-81
2022/12/31 10:06:22;;;;;;;;;;;;;;;11.58;100.00;100839.75;5023460;28;20024;-78
2022/12/31 10:08:50;;;;;;;;;;;;;;;11.59;100.00;100830.03;5053793;28;19924;-77
2022/12/31 10:11:18;;;;;;;;;;;;;;;11.63;100.00;100797.84;5051903;28;19936;-78
2022/12/31 10:14:02;;;;;;;;;;;;;;;11.70;100.00;100790.91;5060689;28;19920;-77
2022/12/31 10:16:30;;;;;;;;;;;;;;;11.73;100.00;100772.09;5053423;28;19916;-78
2022/12/31 10:19:04;;;;;;;;;;;;;;;11.81;100.00;100759.91;5055744;28;20890;-79
2022/12/31 10:21:35;;;;;;;;;;;;;;;11.88;100.00;100721.28;5054098;28;21636;-80
2022/12/31 10:24:10;;;;;;;;;;;;;;;11.92;100.00;100712.84;5059739;28;19920;-80
2022/12/31 10:27:01;;;;;;;;;;;;;;;11.97;100.00;100677.97;5053844;28;20731;-80
2022/12/31 10:29:39;;;;;;;;;;;;;;;12.20;100.00;100666.78;4963899;28;20029;-83
2022/12/31 10:32:07;;;;;;;;;;;;;;;12.30;100.00;100640.97;4981624;28;19917;-80
2022/12/31 10:34:39;;;;;;;;;;;;;;;12.32;100.00;100613.38;4965902;28;19961;-82
2022/12/31 10:37:12;;;;;;;;;;;;;;;12.34;100.00;100582.22;4981866;28;20040;-83
2022/12/31 10:39:40;;;;;;;;;;;;;;;12.35;100.00;100554.78;4964348;28;19928;-83
2022/12/31 10:42:05;;;;;;;;;;;;;;;12.35;100.00;100520.38;4964245;28;19918;-79
2022/12/31 10:44:54;;;;;;;;;;;;;;;12.32;100.00;100504.88;4965276;28;19921;-81
2022/12/31 10:47:22;;;;;;;;;;;;;;;12.43;100.00;100476.38;4979501;28;19933;-81
2022/12/31 10:50:04;;;;;;;;;;;;;;;12.51;100.00;100481.63;4963725;28;19961;-79
2022/12/31 10:52:48;;;;;;;;;;;;;;;12.63;100.00;100440.56;4965687;28;19952;-81
2022/12/31 10:55:32;;;;;;;;;;;;;;;12.74;100.00;100404.91;4963602;28;20374;-81
2022/12/31 10:58:23;;;;;;;;;;;;;;;12.85;100.00;100395.75;4965696;28;19922;-80
2022/12/31 11:01:07;;;;;;;;;;;;;;;13.09;100.00;100344.41;4978068;28;19984;-80
2022/12/31 11:03:46;;;;;;;;;;;;;;;13.37;100.00;100326.94;4967712;28;19928;-82
2022/12/31 11:06:30;;;;;;;;;;;;;;;13.57;100.00;100282.16;5002739;28;19920;-83
2022/12/31 11:09:14;;;;;;;;;;;;;;;13.54;100.00;100264.00;5053565;28;20303;-83
2022/12/31 11:11:52;;;;;;;;;;;;;;;13.40;100.00;100246.25;5060290;28;19920;-83
2022/12/31 11:14:44;;;;;;;;;;;;;;;13.27;100.00;100243.38;5056028;28;19947;-82
2022/12/31 11:17:28;;;;;;;;;;;;;;;13.08;100.00;100242.91;5050071;28;19927;-82
2022/12/31 11:19:56;;;;;;;;;;;;;;;12.96;100.00;100226.63;5053837;28;20819;-82
2022/12/31 11:22:24;;;;;;;;;;;;;;;12.99;100.00;100241.34;5054091;28;19947;-81
2022/12/31 11:24:52;;;;;;;;;;;;;;;12.96;100.00;100239.88;5053773;28;19931;-81
2022/12/31 11:27:38;;;;;;;;;;;;;;;12.94;100.00;100263.06;5052298;28;19924;-81
2022/12/31 11:30:03;;;;;;;;;;;;;;;13.01;100.00;100262.34;5041482;28;19982;-82
2022/12/31 11:32:28;;;;;;;;;;;;;;;13.04;100.00;100280.53;5056451;28;19932;-81
2022/12/31 11:35:06;;;;;;;;;;;;;;;13.02;100.00;100271.94;5055520;28;19932;-81
2022/12/31 11:37:50;;;;;;;;;;;;;;;13.00;100.00;100284.53;5052956;28;19926;-81
2022/12/31 11:40:35;;;;;;;;;;;;;;;13.00;100.00;100282.72;5053899;28;19952;-81
2022/12/31 11:43:13;;;;;;;;;;;;;;;12.97;100.00;100280.44;5055171;28;20344;-82
2022/12/31 11:45:42;;;;;;;;;;;;;;;12.92;100.00;100298.69;5054874;28;19920;-81
2022/12/31 11:48:16;;;;;;;;;;;;;;;12.87;100.00;100308.97;5055131;28;19924;-81
2022/12/31 11:50:56;;;;;;;;;;;;;;;12.86;100.00;100318.75;5055223;28;19920;-80
2022/12/31 11:53:40;;;;;;;;;;;;;;;12.86;100.00;100333.81;5055154;28;19920;-81
2022/12/31 11:56:11;;;;;;;;;;;;;;;12.81;100.00;100330.91;5051315;28;19924;-79
2022/12/31 11:58:36;;;;;;;;;;;;;;;12.82;100.00;100337.81;5053687;28;20003;-80
2022/12/31 12:01:16;;;;;;;;;;;;;;;12.77;100.00;100341.81;5051955;28;20674;-80
2022/12/31 12:03:42;;;;;;;;;;;;;;;12.82;100.00;100345.78;5068491;28;20320;-79
2022/12/31 12:06:12;;;;;;;;;;;;;;;12.82;100.00;100348.41;5037177;28;19999;-80
2022/12/31 12:08:37;;;;;;;;;;;;;;;12.85;100.00;100337.50;5052523;28;20030;-80
2022/12/31 12:11:08;;;;;;;;;;;;;;;12.83;100.00;100335.00;5051958;28;20027;-80
2022/12/31 12:13:33;;;;;;;;;;;;;;;12.83;100.00;100360.69;5052134;28;19921;-80
2022/12/31 12:16:00;;;;;;;;;;;;;;;12.84;100.00;100362.31;5042828;28;19979;-79
2022/12/31 12:18:32;;;;;;;;;;;;;;;12.81;100.00;100363.50;5054370;28;20481;-80
2022/12/31 12:21:05;;;;;;;;;;;;;;;12.81;100.00;100389.16;5052648;28;19935;-80
2022/12/31 12:23:31;;;;;;;;;;;;;;;12.82;100.00;100377.53;5051104;28;19928;-80
2022/12/31 12:25:57;;;;;;;;;;;;;;;12.85;100.00;100371.91;5052596;28;19924;-80
2022/12/31 12:28:24;;;;;;;;;;;;;;;12.82;100.00;100381.00;5052652;28;19966;-81
2022/12/31 12:31:00;;;;;;;;;;;;;;;12.85;100.00;100393.09;5051872;28;19939;-80
2022/12/31 12:33:28;;;;;;;;;;;;;;;12.81;100.00;100389.16;5052536;28;19912;-79
2022/12/31 12:36:04;;;;;;;;;;;;;;;12.77;100.00;100392.13;5052691;28;19951;-80
2022/12/31 12:38:29;;;;;;;;;;;;;;;12.80;100.00;100395.44;5052621;28;20541;-79
2022/12/31 12:40:56;;;;;;;;;;;;;;;12.82;100.00;100396.91;5050512;28;20041;-82
2022/12/31 12:43:26;;;;;;;;;;;;;;;12.85;100.00;100385.16;5059585;28;19974;-79
2022/12/31 12:45:51;;;;;;;;;;;;;;;12.85;100.00;100409.00;5051716;28;20595;-79
2022/12/31 12:48:36;;;;;;;;;;;;;;;12.83;100.00;100400.41;5050975;28;19921;-80
2022/12/31 12:51:12;;;;;;;;;;;;;;;12.79;100.00;100386.66;5050847;28;19917;-80